createdAt,value
2017-12-17T00:00:52.126Z,8.00
2017-12-17T00:01:52.194Z,4.00
2017-12-17T00:02:52.157Z,4.00
2017-12-17T00:03:52.174Z,4.00
2017-12-17T00:04:52.188Z,8.00
2017-12-17T00:05:52.203Z,4.00
2017-12-17T00:06:52.219Z,4.00
2017-12-17T00:07:52.234Z,4.00
2017-12-17T00:08:52.249Z,4.00
2017-12-17T00:09:52.269Z,8.00
2017-12-17T00:10:52.280Z,4.00
2017-12-17T00:11:52.296Z,4.00
2017-12-17T00:12:52.311Z,8.00
2017-12-17T00:13:52.329Z,4.00
2017-12-17T00:14:52.343Z,4.00
2017-12-17T00:15:52.358Z,4.00
2017-12-17T00:16:52.374Z,4.00
2017-12-17T00:17:52.388Z,4.00
2017-12-17T00:18:52.404Z,8.00
2017-12-17T00:19:52.421Z,4.00
2017-12-17T00:20:52.442Z,4.00
2017-12-17T00:21:52.450Z,4.00
2017-12-17T00:22:52.467Z,4.00
2017-12-17T00:23:52.483Z,4.00
2017-12-17T00:24:52.501Z,8.00
2017-12-17T00:25:52.512Z,4.00
2017-12-17T00:26:52.528Z,4.00
2017-12-17T00:27:52.543Z,4.00
2017-12-17T00:28:52.561Z,8.00
2017-12-17T00:29:52.575Z,4.00
2017-12-17T00:30:52.689Z,8.00
2017-12-17T00:31:52.607Z,4.00
2017-12-17T00:32:52.627Z,4.00
2017-12-17T00:33:52.636Z,8.00
2017-12-17T00:34:52.652Z,8.00
2017-12-17T00:35:52.667Z,8.00
2017-12-17T00:36:52.683Z,4.00
2017-12-17T00:37:52.697Z,4.00
2017-12-17T00:38:52.718Z,4.00
2017-12-17T00:39:52.730Z,4.00
2017-12-17T00:40:52.744Z,8.00
2017-12-17T00:41:52.760Z,8.00
2017-12-17T00:42:52.774Z,4.00
2017-12-17T00:43:52.792Z,8.00
2017-12-17T00:44:52.861Z,8.00
2017-12-17T00:45:52.822Z,8.00
2017-12-17T00:46:52.836Z,8.00
2017-12-17T00:47:52.852Z,8.00
2017-12-17T00:48:52.866Z,8.00
2017-12-17T00:49:52.884Z,8.00
2017-12-17T00:50:52.898Z,8.00
2017-12-17T00:51:52.914Z,8.00
2017-12-17T00:52:52.929Z,8.00
2017-12-17T00:53:52.945Z,8.00
2017-12-17T00:54:52.961Z,8.00
2017-12-17T00:55:52.975Z,8.00
2017-12-17T00:56:52.991Z,8.00
2017-12-17T00:57:53.005Z,8.00
2017-12-17T00:58:53.026Z,8.00
2017-12-17T00:59:53.037Z,8.00
2017-12-17T01:00:53.051Z,8.00
2017-12-17T01:01:53.067Z,8.00
2017-12-17T01:02:53.082Z,8.00
2017-12-17T01:03:53.097Z,8.00
2017-12-17T01:04:53.113Z,8.00
2017-12-17T01:05:53.127Z,8.00
2017-12-17T01:06:53.154Z,8.00
2017-12-17T01:07:53.159Z,8.00
2017-12-17T01:08:53.174Z,8.00
2017-12-17T01:09:53.189Z,8.00
2017-12-17T01:10:53.204Z,8.00
2017-12-17T01:11:53.219Z,8.00
2017-12-17T01:12:53.233Z,8.00
2017-12-17T01:13:53.250Z,8.00
2017-12-17T01:14:53.264Z,8.00
2017-12-17T01:15:53.281Z,8.00
2017-12-17T01:16:53.294Z,8.00
2017-12-17T01:17:53.311Z,8.00
2017-12-17T01:18:53.325Z,8.00
2017-12-17T01:19:53.341Z,8.00
2017-12-17T01:20:53.356Z,8.00
2017-12-17T01:21:53.370Z,8.00
2017-12-17T01:22:53.386Z,4.00
2017-12-17T01:23:53.402Z,8.00
2017-12-17T01:24:53.466Z,8.00
2017-12-17T01:25:53.431Z,8.00
2017-12-17T01:26:53.446Z,8.00
2017-12-17T01:27:53.461Z,8.00
2017-12-17T01:28:53.486Z,8.00
2017-12-17T01:29:53.491Z,8.00
2017-12-17T01:30:53.509Z,8.00
2017-12-17T01:31:53.522Z,8.00
2017-12-17T01:32:53.562Z,8.00
2017-12-17T01:33:53.552Z,8.00
2017-12-17T01:34:53.569Z,8.00
2017-12-17T01:35:53.583Z,8.00
2017-12-17T01:36:53.648Z,8.00
2017-12-17T01:37:53.614Z,8.00
2017-12-17T01:38:53.630Z,8.00
2017-12-17T01:39:53.645Z,8.00
2017-12-17T01:40:53.661Z,8.00
2017-12-17T01:41:53.673Z,8.00
2017-12-17T01:42:53.690Z,8.00
2017-12-17T01:43:53.706Z,8.00
2017-12-17T01:44:53.718Z,8.00
2017-12-17T01:45:53.735Z,8.00
2017-12-17T01:46:53.750Z,8.00
2017-12-17T01:47:53.764Z,8.00
2017-12-17T01:48:53.779Z,8.00
2017-12-17T01:49:53.800Z,8.00
2017-12-17T01:50:53.810Z,8.00
2017-12-17T01:51:53.825Z,8.00
2017-12-17T01:52:53.840Z,8.00
2017-12-17T01:53:53.854Z,8.00
2017-12-17T01:54:53.870Z,8.00
2017-12-17T01:55:53.887Z,8.00
2017-12-17T01:56:53.950Z,4.00
2017-12-17T01:57:53.916Z,8.00
2017-12-17T01:58:53.931Z,8.00
2017-12-17T01:59:53.947Z,8.00
2017-12-17T02:00:53.960Z,8.00
2017-12-17T02:01:53.977Z,8.00
2017-12-17T02:02:53.993Z,4.00
2017-12-17T02:03:54.007Z,8.00
2017-12-17T02:04:54.022Z,8.00
2017-12-17T02:05:54.037Z,8.00
2017-12-17T02:06:54.053Z,8.00
2017-12-17T02:07:54.118Z,8.00
2017-12-17T02:08:54.080Z,4.00
2017-12-17T02:09:54.097Z,8.00
2017-12-17T02:10:54.112Z,8.00
2017-12-17T02:11:54.127Z,8.00
2017-12-17T02:12:54.141Z,8.00
2017-12-17T02:13:54.156Z,8.00
2017-12-17T02:14:54.172Z,8.00
2017-12-17T02:15:54.189Z,8.00
2017-12-17T02:16:54.201Z,8.00
2017-12-17T02:17:54.217Z,8.00
2017-12-17T02:18:54.233Z,8.00
2017-12-17T02:19:54.249Z,8.00
2017-12-17T02:20:54.261Z,8.00
2017-12-17T02:21:54.277Z,8.00
2017-12-17T02:22:54.292Z,8.00
2017-12-17T02:23:54.308Z,8.00
2017-12-17T02:24:54.322Z,8.00
2017-12-17T02:25:54.337Z,8.00
2017-12-17T02:26:54.352Z,8.00
2017-12-17T02:27:54.370Z,8.00
2017-12-17T02:28:54.383Z,8.00
2017-12-17T02:29:54.397Z,8.00
2017-12-17T02:30:54.414Z,8.00
2017-12-17T02:31:54.428Z,8.00
2017-12-17T02:32:54.450Z,8.00
2017-12-17T02:33:54.459Z,8.00
2017-12-17T02:34:54.471Z,8.00
2017-12-17T02:35:54.488Z,8.00
2017-12-17T02:36:54.501Z,8.00
2017-12-17T02:37:54.517Z,8.00
2017-12-17T02:38:54.533Z,8.00
2017-12-17T02:39:54.547Z,8.00
2017-12-17T02:40:54.563Z,8.00
2017-12-17T02:41:54.577Z,8.00
2017-12-17T02:42:54.592Z,8.00
2017-12-17T02:43:54.607Z,8.00
2017-12-17T02:44:54.623Z,8.00
2017-12-17T02:45:54.639Z,8.00
2017-12-17T02:46:54.653Z,8.00
2017-12-17T02:47:54.667Z,8.00
2017-12-17T02:48:54.682Z,8.00
2017-12-17T02:49:54.698Z,8.00
2017-12-17T02:50:54.714Z,8.00
2017-12-17T02:51:54.729Z,8.00
2017-12-17T02:52:54.743Z,8.00
2017-12-17T02:53:54.758Z,8.00
2017-12-17T02:54:54.773Z,8.00
2017-12-17T02:55:54.789Z,8.00
2017-12-17T02:56:54.803Z,8.00
2017-12-17T02:57:54.818Z,8.00
2017-12-17T02:58:54.833Z,8.00
2017-12-17T02:59:54.847Z,8.00
2017-12-17T03:00:54.862Z,8.00
2017-12-17T03:01:54.881Z,8.00
2017-12-17T03:02:54.895Z,4.00
2017-12-17T03:03:54.909Z,8.00
2017-12-17T03:04:54.922Z,8.00
2017-12-17T03:05:54.939Z,8.00
2017-12-17T03:06:54.952Z,8.00
2017-12-17T03:07:54.968Z,8.00
2017-12-17T03:08:54.983Z,8.00
2017-12-17T03:09:54.998Z,8.00
2017-12-17T03:10:55.014Z,8.00
2017-12-17T03:11:55.028Z,8.00
2017-12-17T03:12:55.043Z,4.00
2017-12-17T03:13:55.058Z,8.00
2017-12-17T03:14:55.073Z,8.00
2017-12-17T03:15:55.088Z,4.00
2017-12-17T03:16:55.102Z,8.00
2017-12-17T03:17:55.117Z,4.00
2017-12-17T03:18:55.134Z,8.00
2017-12-17T03:19:55.198Z,8.00
2017-12-17T03:20:55.162Z,8.00
2017-12-17T03:21:55.196Z,8.00
2017-12-17T03:22:55.194Z,8.00
2017-12-17T03:23:55.209Z,8.00
2017-12-17T03:24:55.224Z,8.00
2017-12-17T03:25:55.240Z,4.00
2017-12-17T03:26:55.254Z,4.00
2017-12-17T03:27:55.269Z,8.00
2017-12-17T03:28:55.283Z,8.00
2017-12-17T03:29:55.298Z,8.00
2017-12-17T03:30:55.314Z,8.00
2017-12-17T03:31:55.329Z,8.00
2017-12-17T03:32:55.342Z,8.00
2017-12-17T03:33:55.358Z,8.00
2017-12-17T03:34:55.378Z,8.00
2017-12-17T03:35:55.388Z,4.00
2017-12-17T03:36:55.403Z,8.00
2017-12-17T03:37:55.419Z,8.00
2017-12-17T03:38:55.433Z,8.00
2017-12-17T03:39:55.449Z,8.00
2017-12-17T03:40:55.463Z,8.00
2017-12-17T03:41:55.477Z,8.00
2017-12-17T03:42:55.494Z,8.00
2017-12-17T03:43:55.508Z,8.00
2017-12-17T03:44:55.523Z,8.00
2017-12-17T03:45:55.538Z,8.00
2017-12-17T03:46:55.552Z,4.00
2017-12-17T03:47:55.568Z,8.00
2017-12-17T03:48:55.582Z,8.00
2017-12-17T03:49:55.598Z,8.00
2017-12-17T03:50:55.612Z,8.00
2017-12-17T03:51:55.627Z,8.00
2017-12-17T03:52:55.643Z,8.00
2017-12-17T03:53:55.656Z,8.00
2017-12-17T03:54:55.672Z,8.00
2017-12-17T03:55:55.687Z,8.00
2017-12-17T03:56:55.700Z,8.00
2017-12-17T03:57:55.716Z,8.00
2017-12-17T03:58:55.731Z,8.00
2017-12-17T03:59:55.796Z,8.00
2017-12-17T04:00:55.761Z,8.00
2017-12-17T04:01:55.776Z,8.00
2017-12-17T04:02:55.792Z,4.00
2017-12-17T04:03:55.806Z,8.00
2017-12-17T04:04:55.821Z,8.00
2017-12-17T04:05:55.835Z,8.00
2017-12-17T04:06:55.851Z,8.00
2017-12-17T04:07:55.866Z,8.00
2017-12-17T04:08:55.880Z,8.00
2017-12-17T04:09:55.894Z,8.00
2017-12-17T04:10:55.911Z,8.00
2017-12-17T04:11:55.926Z,8.00
2017-12-17T04:12:55.940Z,8.00
2017-12-17T04:13:55.956Z,8.00
2017-12-17T04:14:55.971Z,8.00
2017-12-17T04:15:55.986Z,4.00
2017-12-17T04:16:55.999Z,8.00
2017-12-17T04:17:56.015Z,8.00
2017-12-17T04:18:56.030Z,4.00
2017-12-17T04:19:56.047Z,8.00
2017-12-17T04:20:56.058Z,8.00
2017-12-17T04:21:56.527Z,8.00
2017-12-17T04:22:56.090Z,8.00
2017-12-17T04:23:56.105Z,8.00
2017-12-17T04:24:56.120Z,8.00
2017-12-17T04:25:56.134Z,4.00
2017-12-17T04:26:56.150Z,8.00
2017-12-17T04:27:56.164Z,4.00
2017-12-17T04:28:56.179Z,4.00
2017-12-17T04:29:56.196Z,8.00
2017-12-17T04:30:56.211Z,8.00
2017-12-17T04:31:56.225Z,4.00
2017-12-17T04:32:56.239Z,8.00
2017-12-17T04:33:56.255Z,8.00
2017-12-17T04:34:56.268Z,8.00
2017-12-17T04:35:56.284Z,8.00
2017-12-17T04:36:56.298Z,8.00
2017-12-17T04:37:56.314Z,4.00
2017-12-17T04:38:56.329Z,4.00
2017-12-17T04:39:56.382Z,8.00
2017-12-17T04:40:56.359Z,8.00
2017-12-17T04:41:56.373Z,8.00
2017-12-17T04:42:56.388Z,4.00
2017-12-17T04:43:56.403Z,8.00
2017-12-17T04:44:56.418Z,8.00
2017-12-17T04:45:56.432Z,8.00
2017-12-17T04:46:56.447Z,8.00
2017-12-17T04:47:56.462Z,8.00
2017-12-17T04:48:56.478Z,8.00
2017-12-17T04:49:56.493Z,8.00
2017-12-17T04:50:56.507Z,8.00
2017-12-17T04:51:56.529Z,8.00
2017-12-17T04:52:56.544Z,8.00
2017-12-17T04:53:56.552Z,4.00
2017-12-17T04:54:56.617Z,8.00
2017-12-17T04:55:56.583Z,8.00
2017-12-17T04:56:56.597Z,8.00
2017-12-17T04:57:56.613Z,8.00
2017-12-17T04:58:56.628Z,8.00
2017-12-17T04:59:56.641Z,8.00
2017-12-17T05:00:56.657Z,8.00
2017-12-17T05:01:56.672Z,8.00
2017-12-17T05:02:56.686Z,4.00
2017-12-17T05:03:56.701Z,4.00
2017-12-17T05:04:56.715Z,8.00
2017-12-17T05:05:56.731Z,8.00
2017-12-17T05:06:56.746Z,8.00
2017-12-17T05:07:56.765Z,8.00
2017-12-17T05:08:56.777Z,4.00
2017-12-17T05:09:56.791Z,8.00
2017-12-17T05:10:56.822Z,8.00
2017-12-17T05:11:56.821Z,8.00
2017-12-17T05:12:56.836Z,8.00
2017-12-17T05:13:56.852Z,4.00
2017-12-17T05:14:56.867Z,8.00
2017-12-17T05:15:56.883Z,8.00
2017-12-17T05:16:56.897Z,8.00
2017-12-17T05:17:56.915Z,8.00
2017-12-17T05:18:56.926Z,8.00
2017-12-17T05:19:56.941Z,8.00
2017-12-17T05:20:56.957Z,8.00
2017-12-17T05:21:56.974Z,8.00
2017-12-17T05:22:56.986Z,8.00
2017-12-17T05:23:57.001Z,8.00
2017-12-17T05:24:57.015Z,8.00
2017-12-17T05:25:57.035Z,8.00
2017-12-17T05:26:57.092Z,8.00
2017-12-17T05:27:57.061Z,4.00
2017-12-17T05:28:57.076Z,8.00
2017-12-17T05:29:57.089Z,8.00
2017-12-17T05:30:57.106Z,8.00
2017-12-17T05:31:57.120Z,8.00
2017-12-17T05:32:57.185Z,8.00
2017-12-17T05:33:57.150Z,8.00
2017-12-17T05:34:57.165Z,8.00
2017-12-17T05:35:57.181Z,8.00
2017-12-17T05:36:57.193Z,8.00
2017-12-17T05:37:57.210Z,8.00
2017-12-17T05:38:57.227Z,8.00
2017-12-17T05:39:57.240Z,8.00
2017-12-17T05:40:57.254Z,8.00
2017-12-17T05:41:57.269Z,8.00
2017-12-17T05:42:57.285Z,8.00
2017-12-17T05:43:57.299Z,4.00
2017-12-17T05:44:57.313Z,8.00
2017-12-17T05:45:57.328Z,8.00
2017-12-17T05:46:57.344Z,8.00
2017-12-17T05:47:57.360Z,8.00
2017-12-17T05:48:57.373Z,8.00
2017-12-17T05:49:57.388Z,8.00
2017-12-17T05:50:57.404Z,4.00
2017-12-17T05:51:57.418Z,8.00
2017-12-17T05:52:57.431Z,4.00
2017-12-17T05:53:57.446Z,8.00
2017-12-17T05:54:57.461Z,8.00
2017-12-17T05:55:57.479Z,8.00
2017-12-17T05:56:57.492Z,4.00
2017-12-17T05:57:57.505Z,8.00
2017-12-17T05:58:57.520Z,4.00
2017-12-17T05:59:57.537Z,4.00
2017-12-17T06:00:57.549Z,4.00
2017-12-17T06:01:57.565Z,4.00
2017-12-17T06:02:57.580Z,4.00
2017-12-17T06:03:57.595Z,8.00
2017-12-17T06:04:57.608Z,8.00
2017-12-17T06:05:57.624Z,4.00
2017-12-17T06:06:57.638Z,4.00
2017-12-17T06:07:57.653Z,8.00
2017-12-17T06:08:57.666Z,4.00
2017-12-17T06:09:57.683Z,4.00
2017-12-17T06:10:57.696Z,8.00
2017-12-17T06:11:57.712Z,4.00
2017-12-17T06:12:57.725Z,4.00
2017-12-17T06:13:57.740Z,4.00
2017-12-17T06:14:57.754Z,4.00
2017-12-17T06:15:57.770Z,4.00
2017-12-17T06:16:57.785Z,4.00
2017-12-17T06:17:57.800Z,4.00
2017-12-17T06:18:57.813Z,4.00
2017-12-17T06:19:57.828Z,4.00
2017-12-17T06:20:57.842Z,4.00
2017-12-17T06:21:57.856Z,8.00
2017-12-17T06:22:57.872Z,8.00
2017-12-17T06:23:57.889Z,8.00
2017-12-17T06:24:57.902Z,4.00
2017-12-17T06:25:57.919Z,4.00
2017-12-17T06:26:57.930Z,4.00
2017-12-17T06:27:57.945Z,4.00
2017-12-17T06:28:57.959Z,4.00
2017-12-17T06:29:57.975Z,8.00
2017-12-17T06:30:57.990Z,8.00
2017-12-17T06:31:58.004Z,4.00
2017-12-17T06:32:58.018Z,4.00
2017-12-17T06:33:58.032Z,4.00
2017-12-17T06:34:58.047Z,8.00
2017-12-17T06:35:58.062Z,4.00
2017-12-17T06:36:58.076Z,8.00
2017-12-17T06:37:58.092Z,8.00
2017-12-17T06:38:58.106Z,8.00
2017-12-17T06:39:58.120Z,8.00
2017-12-17T06:40:58.135Z,8.00
2017-12-17T06:41:58.149Z,4.00
2017-12-17T06:42:58.164Z,8.00
2017-12-17T06:43:58.179Z,8.00
2017-12-17T06:44:58.242Z,8.00
2017-12-17T06:45:58.207Z,8.00
2017-12-17T06:46:58.221Z,8.00
2017-12-17T06:47:58.236Z,8.00
2017-12-17T06:48:58.252Z,8.00
2017-12-17T06:49:58.266Z,8.00
2017-12-17T06:50:58.281Z,8.00
2017-12-17T06:51:58.298Z,8.00
2017-12-17T06:52:58.310Z,4.00
2017-12-17T06:53:58.324Z,8.00
2017-12-17T06:54:58.338Z,8.00
2017-12-17T06:55:58.354Z,4.00
2017-12-17T06:56:58.367Z,4.00
2017-12-17T06:57:58.381Z,4.00
2017-12-17T06:58:58.447Z,8.00
2017-12-17T06:59:58.418Z,8.00
2017-12-17T07:00:58.424Z,8.00
2017-12-17T07:01:58.440Z,8.00
2017-12-17T07:02:58.454Z,8.00
2017-12-17T07:03:58.469Z,8.00
2017-12-17T07:04:58.483Z,12.00
2017-12-17T07:05:58.499Z,8.00
2017-12-17T07:06:58.511Z,8.00
2017-12-17T07:07:58.527Z,12.00
2017-12-17T07:08:58.540Z,12.00
2017-12-17T07:09:58.604Z,12.00
2017-12-17T07:10:58.573Z,16.00
2017-12-17T07:11:58.583Z,12.00
2017-12-17T07:12:58.598Z,12.00
2017-12-17T07:13:58.616Z,16.00
2017-12-17T07:14:58.626Z,16.00
2017-12-17T07:15:58.687Z,24.00
2017-12-17T07:16:58.656Z,24.00
2017-12-17T07:17:58.671Z,32.00
2017-12-17T07:18:58.684Z,32.00
2017-12-17T07:19:58.700Z,36.00
2017-12-17T07:20:58.712Z,40.00
2017-12-17T07:21:58.726Z,44.00
2017-12-17T07:22:58.742Z,52.00
2017-12-17T07:23:58.757Z,56.00
2017-12-17T07:24:58.770Z,64.00
2017-12-17T07:25:58.785Z,72.00
2017-12-17T07:26:58.799Z,80.00
2017-12-17T07:27:58.863Z,88.00
2017-12-17T07:28:58.827Z,96.00
2017-12-17T07:29:58.895Z,108.00
2017-12-17T07:30:58.860Z,112.00
2017-12-17T07:31:58.871Z,124.00
2017-12-17T07:32:58.884Z,136.00
2017-12-17T07:33:58.900Z,144.00
2017-12-17T07:34:58.914Z,156.00
2017-12-17T07:35:58.929Z,168.00
2017-12-17T07:36:58.941Z,180.00
2017-12-17T07:37:59.006Z,188.00
2017-12-17T07:38:58.971Z,200.00
2017-12-17T07:39:58.986Z,212.00
2017-12-17T07:40:59.000Z,224.00
2017-12-17T07:41:59.013Z,236.00
2017-12-17T07:42:59.028Z,256.00
2017-12-17T07:43:59.044Z,276.00
2017-12-17T07:44:59.057Z,292.00
2017-12-17T07:45:59.072Z,304.00
2017-12-17T07:46:59.086Z,316.00
2017-12-17T07:47:59.101Z,328.00
2017-12-17T07:48:59.114Z,324.00
2017-12-17T07:49:59.130Z,324.00
2017-12-17T07:50:59.143Z,332.00
2017-12-17T07:51:59.159Z,336.00
2017-12-17T07:52:59.172Z,356.00
2017-12-17T07:53:59.186Z,364.00
2017-12-17T07:54:59.201Z,384.00
2017-12-17T07:55:59.217Z,400.00
2017-12-17T07:56:59.238Z,400.00
2017-12-17T07:57:59.244Z,420.00
2017-12-17T07:58:59.266Z,440.00
2017-12-17T07:59:59.274Z,440.00
2017-12-17T08:00:59.288Z,452.00
2017-12-17T08:01:59.302Z,452.00
2017-12-17T08:02:59.367Z,456.00
2017-12-17T08:03:59.332Z,464.00
2017-12-17T08:04:59.353Z,500.00
2017-12-17T08:05:59.360Z,528.00
2017-12-17T08:06:59.375Z,580.00
2017-12-17T08:07:59.390Z,644.00
2017-12-17T08:08:59.403Z,660.00
2017-12-17T08:09:59.417Z,680.00
2017-12-17T08:10:59.432Z,704.00
2017-12-17T08:11:59.448Z,736.00
2017-12-17T08:12:59.462Z,732.00
2017-12-17T08:13:59.477Z,700.00
2017-12-17T08:14:59.491Z,672.00
2017-12-17T08:15:59.506Z,648.00
2017-12-17T08:16:59.520Z,652.00
2017-12-17T08:17:59.535Z,632.00
2017-12-17T08:18:59.598Z,624.00
2017-12-17T08:19:59.562Z,632.00
2017-12-17T08:20:59.579Z,636.00
2017-12-17T08:21:59.591Z,668.00
2017-12-17T08:22:59.607Z,644.00
2017-12-17T08:23:59.622Z,612.00
2017-12-17T08:24:59.637Z,612.00
2017-12-17T08:25:59.650Z,616.00
2017-12-17T08:26:59.666Z,632.00
2017-12-17T08:27:59.681Z,616.00
2017-12-17T08:28:59.698Z,632.00
2017-12-17T08:29:59.709Z,644.00
2017-12-17T08:30:59.775Z,652.00
2017-12-17T08:31:59.740Z,696.00
2017-12-17T08:32:59.753Z,784.00
2017-12-17T08:33:59.770Z,944.00
2017-12-17T08:34:59.783Z,1084.00
2017-12-17T08:35:59.798Z,1168.00
2017-12-17T08:36:59.812Z,1196.00
2017-12-17T08:37:59.826Z,1204.00
2017-12-17T08:38:59.841Z,1076.00
2017-12-17T08:39:59.857Z,960.00
2017-12-17T08:40:59.872Z,892.00
2017-12-17T08:41:59.885Z,844.00
2017-12-17T08:42:59.900Z,824.00
2017-12-17T08:43:59.916Z,840.00
2017-12-17T08:44:59.929Z,880.00
2017-12-17T08:45:59.946Z,928.00
2017-12-17T08:46:59.958Z,948.00
2017-12-17T08:47:59.973Z,980.00
2017-12-17T08:48:59.987Z,1028.00
2017-12-17T08:50:00.002Z,1108.00
2017-12-17T08:51:00.019Z,1108.00
2017-12-17T08:52:00.082Z,1180.00
2017-12-17T08:53:00.047Z,1288.00
2017-12-17T08:54:00.063Z,1248.00
2017-12-17T08:55:00.076Z,1208.00
2017-12-17T08:56:00.092Z,1228.00
2017-12-17T08:57:00.105Z,1196.00
2017-12-17T08:58:00.121Z,1192.00
2017-12-17T08:59:00.135Z,1248.00
2017-12-17T09:00:00.151Z,1264.00
2017-12-17T09:01:00.165Z,1268.00
2017-12-17T09:02:00.179Z,1280.00
2017-12-17T09:03:00.195Z,1460.00
2017-12-17T09:04:00.209Z,1332.00
2017-12-17T09:05:00.223Z,1220.00
2017-12-17T09:06:00.239Z,1144.00
2017-12-17T09:07:00.255Z,980.00
2017-12-17T09:08:00.268Z,944.00
2017-12-17T09:09:00.283Z,928.00
2017-12-17T09:10:00.299Z,928.00
2017-12-17T09:11:00.314Z,1028.00
2017-12-17T09:12:00.329Z,1048.00
2017-12-17T09:13:00.342Z,952.00
2017-12-17T09:14:00.358Z,948.00
2017-12-17T09:15:00.373Z,1000.00
2017-12-17T09:16:00.390Z,992.00
2017-12-17T09:17:00.403Z,1124.00
2017-12-17T09:18:00.417Z,1252.00
2017-12-17T09:19:00.433Z,1428.00
2017-12-17T09:20:00.448Z,1492.00
2017-12-17T09:21:00.461Z,1508.00
2017-12-17T09:22:00.478Z,1612.00
2017-12-17T09:23:00.492Z,1508.00
2017-12-17T09:24:00.508Z,1380.00
2017-12-17T09:25:00.522Z,1332.00
2017-12-17T09:26:00.537Z,1320.00
2017-12-17T09:27:00.551Z,1248.00
2017-12-17T09:28:00.567Z,1276.00
2017-12-17T09:29:00.582Z,1260.00
2017-12-17T09:30:00.595Z,1228.00
2017-12-17T09:31:00.611Z,1208.00
2017-12-17T09:32:00.676Z,1236.00
2017-12-17T09:33:00.640Z,1240.00
2017-12-17T09:34:00.657Z,1252.00
2017-12-17T09:35:00.671Z,1368.00
2017-12-17T09:36:00.687Z,1404.00
2017-12-17T09:37:00.701Z,1436.00
2017-12-17T09:38:00.715Z,1524.00
2017-12-17T09:39:00.732Z,1548.00
2017-12-17T09:40:00.796Z,1644.00
2017-12-17T09:41:00.761Z,1668.00
2017-12-17T09:42:00.775Z,1616.00
2017-12-17T09:43:00.792Z,1596.00
2017-12-17T09:44:00.806Z,1456.00
2017-12-17T09:45:00.820Z,1472.00
2017-12-17T09:46:00.835Z,1384.00
2017-12-17T09:47:00.850Z,1460.00
2017-12-17T09:48:00.867Z,1636.00
2017-12-17T09:49:00.882Z,2028.00
2017-12-17T09:50:00.897Z,1892.00
2017-12-17T09:51:00.911Z,1972.00
2017-12-17T09:52:00.926Z,1988.00
2017-12-17T09:53:00.941Z,2032.00
2017-12-17T09:54:00.957Z,2020.00
2017-12-17T09:55:00.972Z,1908.00
2017-12-17T09:56:00.988Z,1840.00
2017-12-17T09:57:01.002Z,1880.00
2017-12-17T09:58:01.070Z,1776.00
2017-12-17T09:59:01.040Z,1612.00
2017-12-17T10:00:01.049Z,1412.00
2017-12-17T10:01:01.063Z,1328.00
2017-12-17T10:02:01.080Z,1492.00
2017-12-17T10:03:01.092Z,1548.00
2017-12-17T10:04:01.109Z,1316.00
2017-12-17T10:05:01.122Z,1312.00
2017-12-17T10:06:01.137Z,1440.00
2017-12-17T10:07:01.153Z,1448.00
2017-12-17T10:08:01.169Z,1540.00
2017-12-17T10:09:01.182Z,1736.00
2017-12-17T10:10:01.199Z,1800.00
2017-12-17T10:11:01.217Z,2248.00
2017-12-17T10:12:01.230Z,2576.00
2017-12-17T10:13:01.244Z,2680.00
2017-12-17T10:14:01.258Z,2700.00
2017-12-17T10:15:01.274Z,2640.00
2017-12-17T10:16:01.290Z,2424.00
2017-12-17T10:17:01.304Z,2292.00
2017-12-17T10:18:01.320Z,2348.00
2017-12-17T10:19:01.335Z,2508.00
2017-12-17T10:20:01.351Z,2520.00
2017-12-17T10:21:01.365Z,1956.00
2017-12-17T10:22:01.381Z,1892.00
2017-12-17T10:23:01.397Z,2008.00
2017-12-17T10:24:01.411Z,2164.00
2017-12-17T10:25:01.427Z,2388.00
2017-12-17T10:26:01.441Z,2608.00
2017-12-17T10:27:01.458Z,2624.00
2017-12-17T10:28:01.474Z,2684.00
2017-12-17T10:29:01.488Z,2432.00
2017-12-17T10:30:01.502Z,2592.00
2017-12-17T10:31:01.517Z,3024.00
2017-12-17T10:32:01.583Z,2764.00
2017-12-17T10:33:01.549Z,2912.00
2017-12-17T10:34:01.562Z,2964.00
2017-12-17T10:35:01.579Z,2796.00
2017-12-17T10:36:01.593Z,2824.00
2017-12-17T10:37:01.610Z,2916.00
2017-12-17T10:38:01.625Z,2736.00
2017-12-17T10:39:01.639Z,2700.00
2017-12-17T10:40:01.655Z,2824.00
2017-12-17T10:41:01.720Z,2936.00
2017-12-17T10:42:01.686Z,2956.00
2017-12-17T10:43:01.700Z,2952.00
2017-12-17T10:44:01.716Z,2936.00
2017-12-17T10:45:01.729Z,2892.00
2017-12-17T10:46:01.746Z,2976.00
2017-12-17T10:47:01.850Z,3164.00
2017-12-17T10:48:01.777Z,3056.00
2017-12-17T10:49:01.790Z,2984.00
2017-12-17T10:50:01.807Z,3192.00
2017-12-17T10:51:01.821Z,3104.00
2017-12-17T10:52:01.838Z,3136.00
2017-12-17T10:53:01.852Z,2848.00
2017-12-17T10:54:01.868Z,2808.00
2017-12-17T10:55:01.905Z,2768.00
2017-12-17T10:56:01.899Z,2596.00
2017-12-17T10:57:01.913Z,2576.00
2017-12-17T10:58:01.929Z,2428.00
2017-12-17T10:59:01.943Z,2684.00
2017-12-17T11:00:01.960Z,2800.00
2017-12-17T11:01:01.977Z,2948.00
2017-12-17T11:02:01.990Z,3112.00
2017-12-17T11:03:02.005Z,3292.00
2017-12-17T11:04:02.021Z,3120.00
2017-12-17T11:05:02.037Z,2988.00
2017-12-17T11:06:02.053Z,2464.00
2017-12-17T11:07:02.067Z,2712.00
2017-12-17T11:08:02.087Z,3032.00
2017-12-17T11:09:02.099Z,3136.00
2017-12-17T11:10:02.115Z,2960.00
2017-12-17T11:11:02.132Z,2800.00
2017-12-17T11:12:02.245Z,2808.00
2017-12-17T11:13:02.159Z,2788.00
2017-12-17T11:14:02.176Z,2964.00
2017-12-17T11:15:02.493Z,2564.00
2017-12-17T11:16:02.207Z,2880.00
2017-12-17T11:17:02.222Z,2800.00
2017-12-17T11:18:02.238Z,2856.00
2017-12-17T11:19:02.258Z,2756.00
2017-12-17T11:20:02.270Z,2572.00
2017-12-17T11:21:02.285Z,2668.00
2017-12-17T11:22:02.302Z,2652.00
2017-12-17T11:23:02.316Z,2996.00
2017-12-17T11:24:02.333Z,3244.00
2017-12-17T11:25:02.349Z,3596.00
2017-12-17T11:26:02.363Z,3592.00
2017-12-17T11:27:02.378Z,3780.00
2017-12-17T11:28:02.395Z,3508.00
2017-12-17T11:29:02.410Z,3452.00
2017-12-17T11:30:02.425Z,3536.00
2017-12-17T11:31:02.441Z,3728.00
2017-12-17T11:32:02.456Z,4088.00
2017-12-17T11:33:02.472Z,4204.00
2017-12-17T11:34:02.489Z,4216.00
2017-12-17T11:35:02.504Z,4120.00
2017-12-17T11:36:02.520Z,4288.00
2017-12-17T11:37:02.578Z,4232.00
2017-12-17T11:38:02.551Z,4268.00
2017-12-17T11:39:02.569Z,3836.00
2017-12-17T11:40:02.583Z,3944.00
2017-12-17T11:41:02.598Z,3960.00
2017-12-17T11:42:02.614Z,4036.00
2017-12-17T11:43:02.629Z,3980.00
2017-12-17T11:44:02.645Z,3492.00
2017-12-17T11:45:02.660Z,4028.00
2017-12-17T11:46:02.676Z,3732.00
2017-12-17T11:47:02.793Z,4116.00
2017-12-17T11:48:02.708Z,4184.00
2017-12-17T11:49:02.725Z,4272.00
2017-12-17T11:50:02.740Z,4560.00
2017-12-17T11:51:02.757Z,4716.00
2017-12-17T11:52:02.773Z,4812.00
2017-12-17T11:53:02.787Z,4984.00
2017-12-17T11:54:02.804Z,4824.00
2017-12-17T11:55:02.820Z,4772.00
2017-12-17T11:56:02.835Z,4736.00
2017-12-17T11:57:02.852Z,4616.00
2017-12-17T11:58:02.867Z,4404.00
2017-12-17T11:59:02.884Z,4228.00
2017-12-17T12:00:02.901Z,4144.00
2017-12-17T12:01:02.965Z,3852.00
2017-12-17T12:02:02.933Z,3748.00
2017-12-17T12:03:02.949Z,3880.00
2017-12-17T12:04:02.966Z,3924.00
2017-12-17T12:05:02.981Z,4084.00
2017-12-17T12:06:02.997Z,4240.00
2017-12-17T12:07:03.014Z,3856.00
2017-12-17T12:08:03.031Z,3760.00
2017-12-17T12:09:03.046Z,3460.00
2017-12-17T12:10:03.064Z,3412.00
2017-12-17T12:11:03.079Z,3588.00
2017-12-17T12:12:03.097Z,3432.00
2017-12-17T12:13:03.112Z,3356.00
2017-12-17T12:14:03.126Z,3752.00
2017-12-17T12:15:03.144Z,4012.00
2017-12-17T12:16:03.160Z,4012.00
2017-12-17T12:17:03.176Z,4048.00
2017-12-17T12:18:03.192Z,3960.00
2017-12-17T12:19:03.208Z,4108.00
2017-12-17T12:20:03.225Z,4232.00
2017-12-17T12:21:03.239Z,4296.00
2017-12-17T12:22:03.255Z,4056.00
2017-12-17T12:23:03.271Z,4216.00
2017-12-17T12:24:03.288Z,4352.00
2017-12-17T12:25:03.304Z,4040.00
2017-12-17T12:26:03.318Z,3980.00
2017-12-17T12:27:03.336Z,3608.00
2017-12-17T12:28:03.351Z,3284.00
2017-12-17T12:29:03.367Z,3192.00
2017-12-17T12:30:03.383Z,3348.00
2017-12-17T12:31:03.399Z,3240.00
2017-12-17T12:32:03.416Z,2800.00
2017-12-17T12:33:03.432Z,2828.00
2017-12-17T12:34:03.448Z,2964.00
2017-12-17T12:35:03.465Z,2820.00
2017-12-17T12:36:03.481Z,2784.00
2017-12-17T12:37:03.496Z,3100.00
2017-12-17T12:38:03.513Z,2652.00
2017-12-17T12:39:03.529Z,2680.00
2017-12-17T12:40:03.545Z,2576.00
2017-12-17T12:41:03.560Z,2776.00
2017-12-17T12:42:03.577Z,2496.00
2017-12-17T12:43:03.594Z,2988.00
2017-12-17T12:44:03.612Z,2924.00
2017-12-17T12:45:03.628Z,3012.00
2017-12-17T12:46:03.641Z,2896.00
2017-12-17T12:47:03.661Z,2820.00
2017-12-17T12:48:03.674Z,3164.00
2017-12-17T12:49:03.825Z,3260.00